Time;durP1;ratioP1;P1;durP2;ratioP2;P2;SDS_P1;SDS_P2;PMS_P1;PMS_P2;Temp;Humidity;BMP_temperature;BMP_pressure;BME280_temperature;BME280_humidity;BME280_pressure;Samples;Min_cycle;Max_cycle;Signal;HPM_P1;HPM_P2
2022/03/17 00:00:13;;;;;;;22.57;20.27;;;10.10;49.10;;;;;;6247850;22;20948;-88
2022/03/17 00:02:39;;;;;;;23.40;18.00;;;10.00;48.60;;;;;;6274223;22;20175;-88
2022/03/17 00:05:10;;;;;;;25.30;21.23;;;10.00;49.20;;;;;;6247533;22;20374;-86
2022/03/17 00:07:40;;;;;;;22.27;19.87;;;10.00;48.70;;;;;;6247546;22;20407;-87
2022/03/17 00:10:08;;;;;;;22.27;19.83;;;10.00;48.80;;;;;;6251158;22;20416;-86
2022/03/17 00:12:33;;;;;;;24.10;20.90;;;10.00;48.70;;;;;;6249016;22;20381;-87
2022/03/17 00:14:59;;;;;;;22.70;19.23;;;10.00;48.70;;;;;;6247615;22;20404;-87
2022/03/17 00:17:27;;;;;;;22.70;19.80;;;10.00;48.50;;;;;;6248522;22;20158;-90
2022/03/17 00:20:02;;;;;;;23.83;20.70;;;10.00;48.80;;;;;;6247851;22;20385;-85
2022/03/17 00:22:28;;;;;;;20.90;18.27;;;10.00;48.90;;;;;;6247624;22;20429;-86
2022/03/17 00:24:54;;;;;;;24.20;21.20;;;9.90;49.30;;;;;;6246859;22;20374;-86
2022/03/17 00:27:20;;;;;;;23.83;21.33;;;10.00;48.50;;;;;;6247016;22;20405;-86
2022/03/17 00:29:46;;;;;;;23.73;20.60;;;9.90;48.80;;;;;;6246876;22;20795;-86
2022/03/17 00:32:13;;;;;;;23.13;19.60;;;9.90;48.80;;;;;;6247379;22;20385;-86
2022/03/17 00:35:35;;;;;;;32.67;29.90;;;9.90;49.30;;;;;;6246443;22;20246;-86
2022/03/17 00:37:25;;;;;;;22.23;19.27;;;10.00;48.80;;;;;;6274087;22;20385;-86
2022/03/17 00:39:52;;;;;;;24.80;22.13;;;9.90;49.20;;;;;;6246382;22;20683;-86
2022/03/17 00:42:18;;;;;;;30.57;27.77;;;9.90;49.40;;;;;;6247500;22;20432;-86
2022/03/17 00:44:44;;;;;;;26.57;22.40;;;9.90;49.10;;;;;;6246979;22;20408;-86
2022/03/17 00:47:10;;;;;;;22.67;19.63;;;9.90;49.20;;;;;;6246998;22;20381;-86
2022/03/17 00:49:35;;;;;;;27.20;20.43;;;10.00;48.80;;;;;;6273623;22;20149;-86
2022/03/17 00:52:01;;;;;;;24.70;20.97;;;9.90;48.90;;;;;;6247254;22;20229;-86
2022/03/17 00:54:27;;;;;;;21.67;19.13;;;9.90;49.80;;;;;;6247299;22;20150;-86
2022/03/17 00:56:52;;;;;;;27.13;22.87;;;9.90;50.00;;;;;;6245856;22;20495;-86
2022/03/17 00:59:18;;;;;;;26.10;20.20;;;9.90;50.30;;;;;;6246912;22;20249;-86
2022/03/17 01:01:44;;;;;;;32.10;22.70;;;9.90;50.10;;;;;;6245372;22;20182;-86
2022/03/17 01:04:10;;;;;;;21.90;18.63;;;9.80;49.80;;;;;;6246246;22;20842;-86
2022/03/17 01:06:35;;;;;;;26.80;20.40;;;9.80;51.20;;;;;;6245539;22;20385;-86
2022/03/17 01:09:01;;;;;;;27.00;22.03;;;9.80;51.30;;;;;;6246723;22;20609;-86
2022/03/17 01:11:27;;;;;;;27.93;25.00;;;9.80;50.50;;;;;;6246314;22;20835;-85
2022/03/17 01:13:52;;;;;;;30.60;23.70;;;9.80;50.90;;;;;;6246005;22;20238;-86
2022/03/17 01:16:18;;;;;;;34.70;31.60;;;9.80;50.90;;;;;;6247206;22;20151;-86
2022/03/17 01:18:43;;;;;;;24.13;21.60;;;9.80;51.30;;;;;;6273691;22;20430;-86
2022/03/17 01:21:09;;;;;;;24.57;21.67;;;9.70;51.20;;;;;;6245770;22;20200;-86
2022/03/17 01:23:35;;;;;;;25.73;20.00;;;9.70;50.80;;;;;;6246171;22;20210;-86
2022/03/17 01:26:00;;;;;;;32.90;29.60;;;9.70;51.00;;;;;;6245903;22;20170;-86
2022/03/17 01:28:26;;;;;;;31.67;28.70;;;9.70;51.10;;;;;;6245726;22;20174;-86
2022/03/17 01:30:53;;;;;;;22.90;20.43;;;9.70;50.30;;;;;;6246044;22;20559;-86
2022/03/17 01:33:19;;;;;;;28.13;22.13;;;9.60;49.90;;;;;;6245451;22;20154;-86
2022/03/17 01:35:44;;;;;;;24.57;21.93;;;9.60;50.50;;;;;;6245264;22;20392;-86
2022/03/17 01:38:10;;;;;;;24.23;20.53;;;9.70;51.50;;;;;;6246333;22;20159;-85
2022/03/17 01:40:36;;;;;;;26.70;21.43;;;9.60;50.20;;;;;;6245555;22;20161;-85
2022/03/17 01:43:03;;;;;;;24.10;21.17;;;9.60;50.40;;;;;;6245070;22;20212;-85
2022/03/17 01:45:28;;;;;;;23.20;20.03;;;9.60;50.20;;;;;;6246119;22;20420;-85
2022/03/17 01:47:54;;;;;;;26.87;21.50;;;9.60;50.80;;;;;;6245593;22;20382;-85
2022/03/17 01:50:20;;;;;;;29.30;21.87;;;9.60;49.90;;;;;;6272983;22;20167;-85
2022/03/17 01:52:46;;;;;;;28.73;21.80;;;9.60;51.10;;;;;;6245441;22;20182;-85
2022/03/17 01:55:13;;;;;;;25.07;21.00;;;9.60;50.80;;;;;;6246351;22;20417;-85
2022/03/17 01:57:40;;;;;;;28.23;21.70;;;9.60;50.70;;;;;;6245564;22;20377;-85
2022/03/17 02:00:09;;;;;;;32.63;29.57;;;9.60;52.10;;;;;;6245646;22;20385;-86
2022/03/17 02:02:38;;;;;;;26.70;23.93;;;9.60;52.10;;;;;;6246016;22;20421;-85
2022/03/17 02:05:04;;;;;;;25.50;21.87;;;9.50;51.90;;;;;;6246501;22;20377;-85
2022/03/17 02:07:30;;;;;;;28.50;24.67;;;9.60;52.60;;;;;;6246135;22;20381;-85
2022/03/17 02:09:55;;;;;;;26.50;19.47;;;9.50;52.10;;;;;;6245809;22;20373;-85
2022/03/17 02:15:08;;;;;;;33.77;30.50;;;9.50;52.40;;;;;;6275186;22;20222;-85
2022/03/17 02:17:39;;;;;;;25.40;21.67;;;9.40;52.80;;;;;;6249752;22;20412;-85
2022/03/17 02:20:07;;;;;;;29.20;26.17;;;9.40;53.10;;;;;;6249038;22;20737;-85
2022/03/17 02:22:36;;;;;;;25.73;20.13;;;9.50;53.60;;;;;;6248765;22;20423;-85
2022/03/17 02:27:47;;;;;;;30.07;27.17;;;9.40;53.40;;;;;;6273843;22;20400;-85
2022/03/17 02:30:16;;;;;;;23.50;21.03;;;9.40;53.90;;;;;;6246907;22;20373;-85
2022/03/17 02:32:45;;;;;;;24.77;21.07;;;9.40;54.60;;;;;;6247560;22;20385;-86
2022/03/17 02:35:16;;;;;;;32.83;29.63;;;9.40;54.60;;;;;;6247508;22;20677;-85
2022/03/17 02:37:42;;;;;;;24.77;20.30;;;9.40;53.70;;;;;;6246721;22;20373;-85
2022/03/17 02:40:13;;;;;;;28.43;25.47;;;9.30;54.10;;;;;;6246939;22;20472;-85
2022/03/17 02:42:39;;;;;;;26.20;22.30;;;9.40;53.90;;;;;;6246307;22;20912;-85
2022/03/17 02:45:07;;;;;;;22.20;19.93;;;9.40;52.70;;;;;;6246732;22;20874;-86
2022/03/17 02:47:33;;;;;;;22.03;19.70;;;9.30;54.00;;;;;;6246889;22;20783;-85
2022/03/17 02:49:59;;;;;;;22.60;19.57;;;9.40;54.00;;;;;;6246850;22;20377;-85
2022/03/17 02:52:26;;;;;;;28.87;23.47;;;9.40;53.50;;;;;;6246426;22;20440;-85
2022/03/17 02:54:53;;;;;;;24.33;20.33;;;9.40;54.20;;;;;;6246290;22;20763;-85
2022/03/17 02:57:20;;;;;;;24.07;18.90;;;9.30;53.50;;;;;;6246916;22;20684;-85
2022/03/17 02:59:48;;;;;;;22.07;19.37;;;9.40;53.50;;;;;;6246546;22;20374;-85
2022/03/17 03:02:14;;;;;;;24.37;20.03;;;9.30;53.30;;;;;;6246929;22;20819;-85
2022/03/17 03:04:41;;;;;;;25.33;20.47;;;9.30;53.50;;;;;;6246368;22;20382;-85
2022/03/17 03:07:06;;;;;;;23.97;20.50;;;9.40;53.20;;;;;;6274061;22;20369;-85
2022/03/17 03:09:33;;;;;;;24.20;20.63;;;9.30;53.40;;;;;;6246766;22;20409;-85
2022/03/17 03:11:59;;;;;;;23.37;20.87;;;9.30;53.50;;;;;;6246079;22;20584;-86
2022/03/17 03:14:25;;;;;;;27.90;22.23;;;9.40;52.90;;;;;;6246247;22;20388;-85
2022/03/17 03:16:51;;;;;;;29.27;26.27;;;9.30;52.30;;;;;;6246832;22;20381;-85
2022/03/17 03:19:17;;;;;;;25.20;21.47;;;9.30;52.90;;;;;;6246900;22;20391;-86
2022/03/17 03:21:46;;;;;;;29.27;26.20;;;9.30;53.00;;;;;;6246693;22;20385;-86
2022/03/17 03:24:13;;;;;;;25.70;20.60;;;9.30;53.50;;;;;;6247129;22;20854;-86
2022/03/17 03:26:42;;;;;;;24.87;20.90;;;9.30;52.60;;;;;;6274683;22;20393;-85
2022/03/17 03:29:22;;;;;;;33.20;30.03;;;9.40;52.80;;;;;;6246624;22;20385;-85
2022/03/17 03:31:53;;;;;;;33.17;29.77;;;9.40;52.60;;;;;;6246654;22;20431;-85
2022/03/17 03:34:23;;;;;;;29.33;26.50;;;9.30;53.10;;;;;;6246585;22;20388;-86
2022/03/17 03:39:34;;;;;;;34.37;31.07;;;9.30;52.60;;;;;;6273708;22;20364;-86
2022/03/17 03:42:01;;;;;;;36.80;33.30;;;9.50;51.30;;;;;;6246517;22;20417;-85
2022/03/17 03:44:31;;;;;;;33.50;30.30;;;9.50;52.40;;;;;;6247773;22;20373;-82
2022/03/17 03:46:57;;;;;;;31.40;28.30;;;9.40;53.20;;;;;;6273716;22;20689;-85
2022/03/17 03:49:24;;;;;;;33.17;30.07;;;9.30;51.80;;;;;;6246104;22;20444;-86
2022/03/17 03:51:50;;;;;;;32.07;28.67;;;9.30;51.80;;;;;;6246279;22;20471;-86
2022/03/17 03:54:17;;;;;;;33.17;29.97;;;9.30;52.30;;;;;;6246068;22;20764;-86
2022/03/17 03:56:48;;;;;;;37.70;34.20;;;9.40;51.80;;;;;;6245893;22;20384;-85
2022/03/17 03:59:24;;;;;;;24.43;21.30;;;9.40;52.40;;;;;;6247381;22;20382;-86
2022/03/17 04:02:10;;;;;;;29.10;26.20;;;9.40;52.50;;;;;;6246331;22;20420;-81
2022/03/17 04:04:40;;;;;;;32.10;29.00;;;9.40;52.60;;;;;;6246442;22;20911;-86
2022/03/17 04:07:10;;;;;;;26.70;22.80;;;9.30;53.10;;;;;;6272840;22;20393;-80
2022/03/17 04:09:42;;;;;;;29.13;22.47;;;9.30;53.70;;;;;;6244828;22;20897;-81
2022/03/17 04:12:10;;;;;;;27.77;21.87;;;9.30;53.60;;;;;;6245895;22;20390;-81
2022/03/17 04:14:45;;;;;;;25.83;20.63;;;9.30;53.70;;;;;;6245801;22;20476;-81
2022/03/17 04:17:38;;;;;;;30.23;27.27;;;9.30;53.30;;;;;;6247413;22;20387;-81
2022/03/17 04:20:08;;;;;;;23.50;19.67;;;9.30;52.30;;;;;;6245973;22;20793;-81
2022/03/17 04:22:39;;;;;;;36.50;33.20;;;9.40;53.20;;;;;;6246134;22;20421;-81
2022/03/17 04:25:09;;;;;;;24.73;21.30;;;9.40;52.50;;;;;;6247591;22;20859;-81
2022/03/17 04:27:42;;;;;;;21.50;19.30;;;9.40;51.80;;;;;;6246307;22;20401;-81
2022/03/17 04:30:20;;;;;;;31.30;23.13;;;9.30;52.20;;;;;;6247001;22;20396;-81
2022/03/17 04:32:45;;;;;;;28.17;22.30;;;9.40;51.80;;;;;;6247506;22;20431;-80
2022/03/17 04:35:11;;;;;;;25.33;22.47;;;9.30;52.30;;;;;;6247277;22;20385;-81
2022/03/17 04:37:58;;;;;;;23.07;19.27;;;9.30;52.70;;;;;;6248571;22;20583;-81
2022/03/17 04:40:49;;;;;;;29.37;26.27;;;9.40;51.10;;;;;;6247656;22;20149;-80
2022/03/17 04:43:17;;;;;;;34.53;31.33;;;9.30;51.80;;;;;;6247560;22;20508;-80
2022/03/17 04:45:44;;;;;;;28.77;22.43;;;9.30;51.80;;;;;;6247745;22;20919;-81
2022/03/17 04:48:10;;;;;;;31.07;22.60;;;9.30;51.30;;;;;;6248494;22;20389;-80
2022/03/17 04:50:39;;;;;;;26.07;19.70;;;9.30;51.60;;;;;;6247752;22;20434;-81
2022/03/17 04:55:49;;;;;;;24.60;20.53;;;9.20;51.70;;;;;;6275190;22;20365;-81
2022/03/17 04:58:15;;;;;;;27.07;22.03;;;9.20;52.40;;;;;;6248255;22;20389;-81
2022/03/17 05:00:42;;;;;;;30.47;23.93;;;9.30;51.50;;;;;;6246911;22;20173;-86
2022/03/17 05:03:11;;;;;;;27.53;20.33;;;9.30;51.20;;;;;;6246957;22;20174;-86
2022/03/17 05:05:37;;;;;;;37.20;23.60;;;9.40;51.80;;;;;;6246375;22;20384;-86
2022/03/17 05:08:03;;;;;;;34.70;31.40;;;9.30;51.50;;;;;;6248067;22;20835;-86
2022/03/17 05:10:29;;;;;;;26.27;21.80;;;9.30;50.00;;;;;;6247919;22;20151;-86
2022/03/17 05:12:58;;;;;;;26.50;22.37;;;9.30;50.70;;;;;;6248226;22;20393;-86
2022/03/17 05:15:30;;;;;;;27.73;22.57;;;9.30;50.60;;;;;;6248336;22;20387;-85
2022/03/17 05:18:06;;;;;;;34.50;30.90;;;9.30;49.80;;;;;;6248081;22;20388;-86
2022/03/17 05:20:40;;;;;;;33.53;30.43;;;9.30;51.10;;;;;;6248457;22;20388;-86
2022/03/17 05:23:08;;;;;;;35.27;31.93;;;9.30;50.40;;;;;;6247940;22;20425;-86
2022/03/17 05:25:35;;;;;;;32.23;28.93;;;9.30;50.50;;;;;;6248057;22;20384;-87
2022/03/17 05:28:01;;;;;;;33.30;30.00;;;9.30;51.20;;;;;;6247327;22;20902;-86
2022/03/17 05:30:28;;;;;;;23.83;21.30;;;9.20;50.80;;;;;;6246644;22;20841;-86
2022/03/17 05:32:54;;;;;;;31.30;28.23;;;9.20;51.70;;;;;;6247567;22;20392;-86
2022/03/17 05:35:20;;;;;;;34.23;31.00;;;9.30;51.90;;;;;;6248107;22;20377;-86
2022/03/17 05:37:45;;;;;;;36.40;32.83;;;9.30;52.20;;;;;;6247780;22;20381;-86
2022/03/17 05:40:15;;;;;;;32.57;29.27;;;9.40;50.90;;;;;;6275186;22;20151;-86
2022/03/17 05:42:53;;;;;;;34.83;31.37;;;9.40;51.30;;;;;;6248094;22;20233;-86
2022/03/17 05:45:20;;;;;;;38.10;34.40;;;9.30;51.20;;;;;;6248754;22;20845;-86
2022/03/17 05:47:48;;;;;;;30.03;25.33;;;9.10;51.00;;;;;;6249963;22;20842;-87
2022/03/17 05:50:16;;;;;;;24.83;21.17;;;9.20;51.70;;;;;;6250218;22;20377;-86
2022/03/17 05:52:43;;;;;;;34.00;30.50;;;9.30;51.30;;;;;;6250192;22;20395;-86
2022/03/17 05:55:11;;;;;;;35.47;31.87;;;9.30;50.80;;;;;;6249670;22;20463;-86
2022/03/17 05:57:41;;;;;;;34.90;31.50;;;9.30;51.80;;;;;;6250017;22;20695;-87
2022/03/17 06:00:12;;;;;;;35.00;31.60;;;9.30;51.20;;;;;;6250086;22;20377;-87
2022/03/17 06:02:39;;;;;;;26.37;23.33;;;9.30;51.20;;;;;;6250064;22;20428;-87
2022/03/17 06:05:07;;;;;;;28.30;23.30;;;9.20;50.70;;;;;;6250556;22;20384;-87
2022/03/17 06:07:40;;;;;;;26.00;22.10;;;9.10;51.60;;;;;;6251045;22;20377;-87
2022/03/17 06:10:16;;;;;;;28.80;22.20;;;9.20;51.30;;;;;;6252299;22;20738;-86
2022/03/17 06:12:44;;;;;;;28.73;22.57;;;9.20;51.70;;;;;;6250054;22;20782;-86
2022/03/17 06:15:11;;;;;;;28.60;22.50;;;9.20;51.20;;;;;;6250059;22;20381;-86
2022/03/17 06:17:49;;;;;;;27.67;21.10;;;9.20;51.20;;;;;;6249894;22;20396;-87
2022/03/17 06:20:23;;;;;;;36.63;33.10;;;9.20;49.80;;;;;;6250277;22;20739;-87
2022/03/17 06:22:51;;;;;;;36.53;32.93;;;9.30;49.90;;;;;;6249746;22;20417;-87
2022/03/17 06:25:19;;;;;;;34.17;30.57;;;9.40;50.40;;;;;;6249734;22;20381;-86
2022/03/17 06:27:48;;;;;;;28.70;22.93;;;9.30;50.40;;;;;;6249925;22;20384;-86
2022/03/17 06:30:35;;;;;;;26.30;21.27;;;9.30;49.70;;;;;;6249798;22;20373;-87
2022/03/17 06:33:01;;;;;;;28.97;22.80;;;9.20;50.30;;;;;;6250092;22;20519;-87
2022/03/17 06:35:28;;;;;;;34.73;31.30;;;9.20;51.30;;;;;;6250058;22;20391;-87
2022/03/17 06:37:56;;;;;;;39.57;35.80;;;9.20;51.20;;;;;;6249698;22;20868;-87
2022/03/17 06:40:29;;;;;;;35.60;25.70;;;9.30;50.80;;;;;;6250548;22;20382;-89
2022/03/17 06:43:32;;;;;;;30.73;23.23;;;9.30;50.20;;;;;;6249853;22;20432;-85
2022/03/17 06:45:50;;;;;;;29.03;21.63;;;9.30;50.80;;;;;;6272246;22;20523;-85
2022/03/17 06:48:16;;;;;;;32.87;24.20;;;9.40;50.50;;;;;;6249085;22;20422;-84
2022/03/17 06:50:41;;;;;;;30.10;22.53;;;9.40;51.00;;;;;;6248628;22;20482;-85
2022/03/17 06:53:07;;;;;;;35.67;32.07;;;9.40;49.60;;;;;;6249857;22;20158;-84
2022/03/17 06:55:33;;;;;;;30.87;27.47;;;9.50;49.40;;;;;;6249689;22;20161;-86
2022/03/17 06:58:00;;;;;;;35.03;31.47;;;9.40;50.40;;;;;;6249022;22;20205;-85
2022/03/17 07:00:25;;;;;;;26.47;20.73;;;9.40;51.10;;;;;;6249426;22;20830;-84
2022/03/17 07:02:51;;;;;;;27.53;22.77;;;9.40;50.60;;;;;;6248868;22;20444;-84
2022/03/17 07:05:17;;;;;;;25.73;22.53;;;9.30;50.80;;;;;;6249703;22;20151;-84
2022/03/17 07:07:43;;;;;;;29.73;22.17;;;9.30;50.50;;;;;;6249314;22;20153;-85
2022/03/17 07:10:11;;;;;;;28.07;23.00;;;9.40;51.00;;;;;;6250048;22;20485;-85
2022/03/17 07:12:37;;;;;;;27.67;21.77;;;9.40;50.80;;;;;;6249753;22;20428;-84
2022/03/17 07:15:04;;;;;;;29.33;24.10;;;9.40;51.40;;;;;;6249176;22;20744;-85
2022/03/17 07:17:39;;;;;;;34.47;26.50;;;9.50;51.10;;;;;;6249376;22;20165;-85
2022/03/17 07:20:07;;;;;;;29.50;22.93;;;9.50;51.90;;;;;;6249459;22;20408;-85
2022/03/17 07:22:33;;;;;;;29.70;23.80;;;9.50;53.40;;;;;;6249490;22;20429;-85
2022/03/17 07:24:59;;;;;;;32.20;24.70;;;9.60;54.50;;;;;;6249021;22;20388;-84
2022/03/17 07:27:24;;;;;;;24.27;20.70;;;9.50;53.90;;;;;;6276466;22;20473;-85
2022/03/17 07:29:51;;;;;;;32.00;22.43;;;9.60;54.60;;;;;;6249037;22;20224;-84
2022/03/17 07:32:18;;;;;;;29.33;23.23;;;9.70;54.20;;;;;;6249101;22;20531;-85
2022/03/17 07:34:45;;;;;;;27.77;21.90;;;9.60;54.80;;;;;;6248480;22;20726;-85
2022/03/17 07:37:11;;;;;;;29.60;22.43;;;9.60;55.70;;;;;;6249142;22;20713;-84
2022/03/17 07:39:37;;;;;;;32.03;23.60;;;9.50;55.70;;;;;;6249124;22;20378;-84
2022/03/17 07:42:04;;;;;;;38.77;34.57;;;9.50;56.70;;;;;;6248762;22;20178;-84
2022/03/17 07:44:49;;;;;;;28.60;25.70;;;9.60;55.50;;;;;;6249165;22;20151;-85
2022/03/17 07:47:14;;;;;;;29.33;23.87;;;9.70;55.50;;;;;;6249589;22;20365;-86
2022/03/17 07:49:40;;;;;;;27.90;22.77;;;9.70;55.40;;;;;;6248858;22;20411;-85
2022/03/17 07:52:07;;;;;;;33.47;24.80;;;9.70;55.50;;;;;;6249328;22;20162;-85
2022/03/17 07:54:33;;;;;;;31.27;23.37;;;9.70;55.50;;;;;;6248656;22;20373;-85
2022/03/17 07:57:01;;;;;;;30.20;24.50;;;9.70;56.90;;;;;;6249156;22;20386;-85
2022/03/17 07:59:27;;;;;;;33.20;23.87;;;9.70;56.20;;;;;;6248878;22;20858;-85
2022/03/17 08:01:53;;;;;;;29.83;22.70;;;9.70;55.80;;;;;;6248493;22;20874;-85
2022/03/17 08:04:19;;;;;;;29.27;22.83;;;9.80;55.70;;;;;;6248614;22;20381;-85
2022/03/17 08:06:45;;;;;;;38.87;26.67;;;9.90;52.90;;;;;;6249005;22;20237;-84
2022/03/17 08:09:10;;;;;;;24.37;20.90;;;9.80;53.30;;;;;;6248533;22;20150;-84
2022/03/17 08:11:36;;;;;;;29.27;22.90;;;9.80;53.20;;;;;;6275711;22;20366;-84
2022/03/17 08:14:02;;;;;;;27.50;23.00;;;9.80;54.70;;;;;;6248803;22;20229;-84
2022/03/17 08:16:27;;;;;;;27.47;23.40;;;9.80;53.60;;;;;;6248783;22;20151;-86
2022/03/17 08:18:54;;;;;;;31.63;22.17;;;9.80;53.40;;;;;;6248671;22;20151;-85
2022/03/17 08:21:22;;;;;;;25.10;21.73;;;9.90;53.90;;;;;;6248757;22;20188;-85
2022/03/17 08:23:48;;;;;;;28.87;23.70;;;9.90;53.60;;;;;;6247968;22;20456;-86
2022/03/17 08:26:14;;;;;;;30.30;25.00;;;9.90;52.90;;;;;;6248767;22;20378;-85
2022/03/17 08:28:40;;;;;;;36.90;23.80;;;9.90;52.30;;;;;;6248484;22;20611;-84
2022/03/17 08:31:06;;;;;;;39.67;23.77;;;10.00;52.20;;;;;;6248792;22;20388;-83
2022/03/17 08:33:31;;;;;;;36.10;25.97;;;10.00;53.40;;;;;;6248748;22;20159;-84
2022/03/17 08:35:57;;;;;;;41.67;37.50;;;10.10;52.10;;;;;;6248491;22;20154;-85
2022/03/17 08:38:22;;;;;;;32.47;23.93;;;10.20;51.40;;;;;;6248671;22;20155;-85
2022/03/17 08:40:48;;;;;;;30.03;22.47;;;10.20;49.70;;;;;;6248489;22;20159;-85
2022/03/17 08:43:14;;;;;;;26.93;22.97;;;10.20;49.40;;;;;;6248317;22;20244;-85
2022/03/17 08:51:12;;;;;;;30.80;24.73;;;10.40;50.80;;;;;;6276224;22;20415;-85
2022/03/17 08:53:41;;;;;;;29.50;25.80;;;10.40;51.40;;;;;;6249362;22;20389;-86
2022/03/17 08:56:09;;;;;;;35.73;25.80;;;10.50;50.60;;;;;;6250000;22;20434;-85
2022/03/17 08:58:36;;;;;;;35.50;26.10;;;10.50;51.80;;;;;;6250028;22;20464;-84
2022/03/17 09:01:02;;;;;;;30.97;22.97;;;10.40;51.10;;;;;;6249644;22;20396;-83
2022/03/17 09:06:04;;;;;;;28.90;24.47;;;10.40;51.10;;;;;;6275113;22;20780;-81
2022/03/17 09:09:18;;;;;;;35.67;25.73;;;10.40;51.70;;;;;;6247908;22;20384;-80
2022/03/17 09:12:05;;;;;;;29.70;22.90;;;10.50;51.80;;;;;;6240572;22;20587;-82
2022/03/17 09:14:41;;;;;;;37.37;23.27;;;10.40;51.70;;;;;;6247789;22;20412;-81
2022/03/17 09:17:18;;;;;;;29.80;22.77;;;10.40;51.20;;;;;;6248029;22;20388;-82
2022/03/17 09:19:44;;;;;;;28.07;23.73;;;10.40;50.50;;;;;;6274341;22;20346;-82
2022/03/17 09:22:25;;;;;;;35.07;24.03;;;10.50;51.30;;;;;;6247461;22;20443;-80
2022/03/17 09:25:10;;;;;;;28.87;23.20;;;10.50;49.80;;;;;;6246620;22;20366;-82
2022/03/17 09:31:17;;;;;;;30.90;22.43;;;10.50;50.80;;;;;;6274353;22;20455;-82
2022/03/17 09:37:17;;;;;;;32.00;23.00;;;10.60;51.70;;;;;;6273727;22;20384;-82
2022/03/17 09:40:23;;;;;;;25.73;20.10;;;10.70;52.80;;;;;;6246685;22;20392;-81
2022/03/17 09:46:24;;;;;;;28.47;20.60;;;10.80;50.50;;;;;;6273019;22;20491;-82
2022/03/17 09:49:37;;;;;;;29.83;22.70;;;10.80;52.10;;;;;;6244289;22;20436;-82
2022/03/17 09:52:24;;;;;;;27.90;20.87;;;10.90;52.20;;;;;;6247616;22;20381;-82
2022/03/17 09:55:04;;;;;;;30.20;22.00;;;10.90;51.20;;;;;;6184524;23;20871;-82
2022/03/17 10:00:49;;;;;;;31.20;22.20;;;10.90;50.00;;;;;;6273817;22;20439;-82
2022/03/17 10:03:21;;;;;;;27.67;22.27;;;10.90;50.80;;;;;;6243769;22;20421;-82
2022/03/17 10:05:51;;;;;;;33.57;24.00;;;10.90;50.60;;;;;;6246156;22;20401;-82
2022/03/17 10:09:09;;;;;;;29.37;21.87;;;10.90;50.30;;;;;;6246878;22;20431;-82
2022/03/17 10:15:29;;;;;;;29.60;22.43;;;11.00;51.00;;;;;;6169650;23;20555;-82
2022/03/17 10:18:18;;;;;;;30.60;22.50;;;11.00;50.90;;;;;;6185233;23;20880;-82
2022/03/17 10:21:18;;;;;;;27.27;21.13;;;11.10;50.90;;;;;;6184762;23;20368;-82
2022/03/17 10:23:54;;;;;;;26.37;22.47;;;11.10;50.00;;;;;;6166797;23;20842;-82
2022/03/17 10:26:36;;;;;;;33.20;23.20;;;11.10;50.60;;;;;;6184764;23;20494;-81
2022/03/17 10:29:05;;;;;;;30.97;21.77;;;11.20;50.70;;;;;;6184711;23;20387;-82
2022/03/17 10:31:49;;;;;;;30.13;24.10;;;11.20;50.80;;;;;;6222479;22;20385;-82
2022/03/17 10:34:19;;;;;;;29.90;24.20;;;11.30;50.40;;;;;;6248700;22;20376;-82
2022/03/17 10:36:48;;;;;;;28.20;22.30;;;11.30;49.80;;;;;;6248622;22;20381;-82
2022/03/17 10:39:15;;;;;;;29.63;23.10;;;11.30;50.30;;;;;;6276173;22;20364;-81
2022/03/17 10:41:51;;;;;;;31.83;21.33;;;11.40;50.20;;;;;;6275251;22;20372;-80
2022/03/17 10:44:18;;;;;;;26.67;22.57;;;11.50;51.00;;;;;;6246946;22;20381;-81
2022/03/17 10:46:55;;;;;;;27.10;21.20;;;11.60;49.80;;;;;;6248534;22;20385;-80
2022/03/17 10:49:21;;;;;;;26.60;20.53;;;11.60;50.40;;;;;;6248767;22;20381;-79
2022/03/17 10:51:52;;;;;;;27.00;20.77;;;11.70;50.80;;;;;;6248586;22;20392;-79
2022/03/17 10:54:18;;;;;;;28.23;23.30;;;11.70;50.80;;;;;;6248497;22;20143;-79
2022/03/17 10:57:05;;;;;;;27.43;21.87;;;11.80;49.70;;;;;;6247849;22;20386;-79
2022/03/17 10:59:47;;;;;;;27.53;19.57;;;11.80;50.20;;;;;;6248458;22;20378;-80
2022/03/17 11:02:17;;;;;;;22.33;19.97;;;11.80;50.30;;;;;;6248290;22;20452;-79
2022/03/17 11:04:49;;;;;;;25.53;17.83;;;11.80;50.80;;;;;;6248172;22;20853;-80
2022/03/17 11:07:17;;;;;;;24.37;18.60;;;12.00;50.80;;;;;;6248673;22;20397;-79
2022/03/17 11:09:45;;;;;;;23.13;20.03;;;12.00;50.40;;;;;;6247380;22;20456;-80
2022/03/17 11:12:17;;;;;;;24.40;20.10;;;12.10;51.40;;;;;;6275551;22;20393;-80
2022/03/17 11:14:47;;;;;;;32.23;19.57;;;12.00;51.30;;;;;;6247739;22;20451;-80
2022/03/17 11:17:20;;;;;;;28.50;19.27;;;12.00;51.00;;;;;;6275720;22;20381;-80
2022/03/17 11:19:46;;;;;;;25.30;18.80;;;12.10;50.80;;;;;;6247915;22;20377;-80
2022/03/17 11:22:20;;;;;;;26.17;20.80;;;12.00;50.90;;;;;;6247628;22;20901;-80
2022/03/17 11:25:23;;;;;;;22.73;19.80;;;11.80;51.80;;;;;;6248441;22;20381;-80
2022/03/17 11:27:50;;;;;;;29.17;22.30;;;11.90;52.50;;;;;;6248200;22;20861;-78
2022/03/17 11:30:17;;;;;;;26.23;19.83;;;12.00;51.00;;;;;;6276201;22;20388;-79
2022/03/17 11:32:58;;;;;;;25.40;20.63;;;12.00;51.10;;;;;;6248309;22;20421;-78
2022/03/17 11:35:32;;;;;;;21.47;18.77;;;12.00;51.00;;;;;;6248787;22;20720;-79
2022/03/17 11:38:24;;;;;;;34.37;21.13;;;11.90;52.00;;;;;;6248224;22;20403;-79
2022/03/17 11:41:15;;;;;;;32.10;21.30;;;11.80;52.50;;;;;;6275592;22;20381;-79
2022/03/17 11:43:47;;;;;;;27.80;21.90;;;11.80;53.00;;;;;;6247876;22;20425;-80
2022/03/17 11:46:18;;;;;;;25.10;19.80;;;11.80;53.00;;;;;;6248506;22;20443;-79
2022/03/17 11:48:46;;;;;;;32.00;21.03;;;11.70;53.60;;;;;;6247592;22;20366;-78
2022/03/17 11:51:15;;;;;;;29.17;21.50;;;11.60;54.40;;;;;;6248689;22;20409;-79
2022/03/17 11:54:01;;;;;;;32.50;20.10;;;11.70;54.50;;;;;;6247850;22;20389;-79
2022/03/17 11:56:38;;;;;;;30.07;22.97;;;11.60;55.30;;;;;;6248646;22;20389;-79
2022/03/17 11:59:08;;;;;;;26.03;20.53;;;11.70;54.90;;;;;;6248256;22;20463;-79
2022/03/17 12:01:46;;;;;;;28.30;24.00;;;11.70;55.30;;;;;;6248080;22;20447;-78
2022/03/17 12:04:30;;;;;;;31.90;22.47;;;11.60;56.10;;;;;;6248212;22;20373;-79
2022/03/17 12:07:18;;;;;;;32.23;24.40;;;11.60;56.50;;;;;;6247684;22;20401;-79
2022/03/17 12:09:44;;;;;;;31.83;23.60;;;11.60;56.90;;;;;;6247279;22;20388;-80
2022/03/17 12:12:18;;;;;;;42.37;34.57;;;11.60;57.80;;;;;;6247482;22;20416;-78
2022/03/17 12:14:55;;;;;;;32.30;23.80;;;11.60;58.20;;;;;;6246973;22;20863;-79
2022/03/17 12:17:26;;;;;;;31.30;22.90;;;11.70;57.60;;;;;;6247500;22;20373;-79
2022/03/17 12:20:14;;;;;;;33.87;24.70;;;11.60;57.60;;;;;;6247912;22;20764;-80
2022/03/17 12:22:43;;;;;;;31.73;21.07;;;11.70;57.50;;;;;;6247130;22;20436;-80
2022/03/17 12:25:20;;;;;;;34.60;22.73;;;11.40;57.20;;;;;;6247549;22;20431;-81
2022/03/17 12:28:00;;;;;;;30.80;21.37;;;11.50;57.80;;;;;;6246869;22;20713;-80
2022/03/17 12:30:28;;;;;;;28.87;23.50;;;11.40;58.20;;;;;;6247867;22;20418;-78
2022/03/17 12:32:55;;;;;;;29.77;23.33;;;11.50;57.70;;;;;;6247724;22;20396;-78
2022/03/17 12:35:30;;;;;;;29.90;23.37;;;11.40;58.20;;;;;;6247820;22;20773;-80
2022/03/17 12:38:09;;;;;;;29.07;21.90;;;11.50;58.00;;;;;;6247430;22;20373;-80
2022/03/17 12:40:47;;;;;;;36.37;24.57;;;11.60;57.80;;;;;;6248181;22;20435;-81
2022/03/17 12:43:20;;;;;;;30.30;23.73;;;11.60;56.40;;;;;;6246648;22;20448;-80
2022/03/17 12:46:07;;;;;;;;;;;;;;;;;;;;;
2022/03/17 12:48:34;;;;;;;30.23;24.90;;;11.80;56.00;;;;;;6275063;22;20441;-79
2022/03/17 12:51:21;;;;;;;32.13;23.80;;;11.80;54.10;;;;;;6247008;22;20420;-79
2022/03/17 12:53:47;;;;;;;28.57;21.13;;;11.80;54.60;;;;;;6247429;22;20468;-79
2022/03/17 12:56:15;;;;;;;29.20;22.13;;;11.70;55.10;;;;;;6246951;22;20719;-79
2022/03/17 12:58:48;;;;;;;30.33;22.80;;;11.70;56.00;;;;;;6246798;22;20719;-79
2022/03/17 13:01:24;;;;;;;29.47;22.43;;;11.70;55.10;;;;;;6247191;22;20395;-79
2022/03/17 13:03:50;;;;;;;30.53;24.30;;;11.80;55.20;;;;;;6246600;22;20444;-79
2022/03/17 13:09:05;;;;;;;36.87;25.37;;;11.60;56.20;;;;;;6273986;22;20524;-79
2022/03/17 13:14:25;;;;;;;35.70;23.30;;;11.70;55.60;;;;;;6274363;22;20852;-79
2022/03/17 13:17:22;;;;;;;32.23;23.07;;;11.70;55.20;;;;;;6246436;22;20385;-81
2022/03/17 13:19:51;;;;;;;32.43;24.27;;;11.80;54.20;;;;;;6244190;22;20873;-80
2022/03/17 13:22:34;;;;;;;32.03;23.17;;;11.80;54.40;;;;;;6247140;22;20425;-80
2022/03/17 13:25:11;;;;;;;26.67;20.80;;;11.70;54.70;;;;;;6247290;22;20416;-80
2022/03/17 13:27:57;;;;;;;27.90;23.87;;;11.70;54.40;;;;;;6247205;22;20376;-80
2022/03/17 13:30:24;;;;;;;29.53;24.50;;;11.60;54.50;;;;;;6246659;22;20451;-79
2022/03/17 13:33:13;;;;;;;28.73;23.57;;;11.60;54.30;;;;;;6246592;22;20972;-80